Time;durP1;ratioP1;P1;durP2;ratioP2;P2;SDS_P1;SDS_P2;PMS_P1;PMS_P2;Temp;Humidity;BMP_temperature;BMP_pressure;BME280_temperature;BME280_humidity;BME280_pressure;Samples;Min_cycle;Max_cycle;Signal;HPM_P1;HPM_P2
2022/09/14 00:04:12;;;;;;;;;;;;;;;;;;5060307;28;20354;-23
2022/09/14 00:06:40;;;;;;;;;;;;;;;;;;5060504;28;20229;-23
2022/09/14 00:26:17;;;;;;;;;;;;;;;;;;5056914;28;19924;-24
2022/09/14 00:28:45;;;;;;;;;;;;;;;;;;5059150;28;20266;-24
2022/09/14 00:34:07;;;;;;;;;;;;;;;;;;5077008;28;19912;-24
2022/09/14 00:36:38;;;;;;;;;;;;;;;;;;5075599;28;20274;-24
2022/09/14 00:39:10;;;;;;;;;;;;;;;;;;5078300;28;20334;-24
2022/09/14 00:44:31;;;;;;;;;;;;;;;;;;5078339;28;20025;-23
2022/09/14 00:47:04;;;;;;;;;;;;;;;;;;5077037;28;19916;-24
2022/09/14 00:49:33;;;;;;;;;;;;;;;;;;5078717;28;20246;-24
2022/09/14 00:52:04;;;;;;;;;;;;;;;;;;5078052;28;19992;-23
2022/09/14 00:54:34;;;;;;;;;;;;;;;;;;5076997;28;19913;-24
2022/09/14 00:57:07;;;;;;;;;;;;;;;;;;5080200;28;20052;-24
2022/09/14 01:02:30;;;;;;;;;;;;;;;;;;5078188;28;19955;-24
2022/09/14 01:13:41;;;;;;;;;;;;;;;;;;5450828;22;19947;-23
2022/09/14 01:24:40;;;;;;;;;;;;;;;;;;5099065;28;19937;-24
2022/09/14 01:27:11;;;;;;;;;;;;;;;;;;5097835;28;19919;-23
2022/09/14 01:29:41;;;;;;;;;;;;;;;;;;5099082;28;20351;-23
2022/09/14 01:35:17;;;;;;;;;;;;;;;;;;5098188;28;19923;-24
2022/09/14 01:37:47;;;;;;;;;;;;;;;;;;5097596;28;20319;-23
2022/09/14 01:40:26;;;;;;;;;;;;;;;;;;5098280;28;19912;-23
2022/09/14 01:42:55;;;;;;;;;;;;;;;;;;5098505;28;19962;-23
2022/09/14 01:48:14;;;;;;;;;;;;;;;;;;5098564;28;20246;-24
2022/09/14 02:01:57;;;;;;;;;;;;;;;;;;5118292;28;19937;-23
2022/09/14 02:09:46;;;;;;;;;;;;;;;;;;5117675;28;19930;-23
2022/09/14 02:20:48;;;;;;;;;;;;;;;;;;5118256;28;19934;-24
2022/09/14 02:28:54;;;;;;;;;;;;;;;;;;5118638;28;20022;-23
2022/09/14 02:34:13;;;;;;;;;;;;;;;;;;5117877;28;20233;-24
2022/09/14 02:39:34;;;;;;;;;;;;;;;;;;5116558;28;19931;-24
2022/09/14 02:50:27;;;;;;;;;;;;;;;;;;5116973;28;20240;-23
2022/09/14 02:52:57;;;;;;;;;;;;;;;;;;5116307;28;19912;-23
2022/09/14 03:03:51;;;;;;;;;;;;;;;;;;5119208;28;19926;-23
2022/09/14 03:08:55;;;;;;;;;;;;;;;;;;5320990;22;19924;-19
2022/09/14 03:17:00;;;;;;;;;;;;;;;;;;5122001;28;19965;-19
2022/09/14 03:19:28;;;;;;;;;;;;;;;;;;5121741;28;19911;-19
2022/09/14 03:21:56;;;;;;;;;;;;;;;;;;5121875;28;20251;-19
2022/09/14 03:30:03;;;;;;;;;;;;;;;;;;5122127;28;19923;-19
2022/09/14 03:32:32;;;;;;;;;;;;;;;;;;5119818;28;20042;-19
2022/09/14 03:35:00;;;;;;;;;;;;;;;;;;5120387;28;19916;-19
2022/09/14 03:37:27;;;;;;;;;;;;;;;;;;5121053;28;19994;-19
2022/09/14 03:39:54;;;;;;;;;;;;;;;;;;5121010;28;20354;-19
2022/09/14 03:42:21;;;;;;;;;;;;;;;;;;5121144;28;20250;-19
2022/09/14 03:44:50;;;;;;;;;;;;;;;;;;5121574;28;19947;-19
2022/09/14 03:47:17;;;;;;;;;;;;;;;;;;5122242;28;20334;-20
2022/09/14 03:49:46;;;;;;;;;;;;;;;;;;5120535;28;19923;-19
2022/09/14 03:52:13;;;;;;;;;;;;;;;;;;5122217;28;19908;-19
2022/09/14 03:54:42;;;;;;;;;;;;;;;;;;5121025;28;19974;-19
2022/09/14 04:05:38;;;;;;;;;;;;;;;;;;5121628;28;19922;-19
2022/09/14 04:08:07;;;;;;;;;;;;;;;;;;5120818;28;19915;-20
2022/09/14 04:10:39;;;;;;;;;;;;;;;;;;5100793;28;20029;-20
2022/09/14 04:13:07;;;;;;;;;;;;;;;;;;5100119;28;19912;-20
2022/09/14 04:15:35;;;;;;;;;;;;;;;;;;5082634;28;20243;-20
2022/09/14 04:18:04;;;;;;;;;;;;;;;;;;5100077;28;20390;-20
2022/09/14 04:20:32;;;;;;;;;;;;;;;;;;5100291;28;20267;-20
2022/09/14 04:25:50;;;;;;;;;;;;;;;;;;5100856;28;19927;-20
2022/09/14 04:28:18;;;;;;;;;;;;;;;;;;5082563;28;19912;-20
2022/09/14 04:30:47;;;;;;;;;;;;;;;;;;5100335;28;19912;-20
2022/09/14 04:33:14;;;;;;;;;;;;;;;;;;5082297;28;19912;-20
2022/09/14 04:35:41;;;;;;;;;;;;;;;;;;5100050;28;19981;-20
2022/09/14 04:38:08;;;;;;;;;;;;;;;;;;5081506;28;19934;-19
2022/09/14 04:40:36;;;;;;;;;;;;;;;;;;5100496;28;19912;-20
2022/09/14 04:43:03;;;;;;;;;;;;;;;;;;5100805;28;19916;-19
2022/09/14 04:48:16;;;;;;;;;;;;;;;;;;5102592;28;19915;-20
2022/09/14 04:50:44;;;;;;;;;;;;;;;;;;5104521;28;19940;-20
2022/09/14 04:53:13;;;;;;;;;;;;;;;;;;5085425;28;20334;-20
2022/09/14 05:04:01;;;;;;;;;;;;;;;;;;5101339;28;19927;-19
2022/09/14 05:09:13;;;;;;;;;;;;;;;;;;5119008;27;20018;-20
2022/09/14 05:17:19;;;;;;;;;;;;;;;;;;5141632;27;19922;-20
2022/09/14 05:19:46;;;;;;;;;;;;;;;;;;5124462;27;20194;-20
2022/09/14 05:22:17;;;;;;;;;;;;;;;;;;5142291;27;19915;-19
2022/09/14 05:24:45;;;;;;;;;;;;;;;;;;5141202;27;20009;-19
2022/09/14 05:27:12;;;;;;;;;;;;;;;;;;5125345;27;19907;-19
2022/09/14 05:29:40;;;;;;;;;;;;;;;;;;5124693;27;20406;-20
2022/09/14 05:32:07;;;;;;;;;;;;;;;;;;5139530;27;19919;-20
2022/09/14 05:34:35;;;;;;;;;;;;;;;;;;5139946;27;19911;-21
2022/09/14 05:37:02;;;;;;;;;;;;;;;;;;5139825;27;19911;-21
2022/09/14 05:39:30;;;;;;;;;;;;;;;;;;5140673;27;19907;-19
2022/09/14 05:42:01;;;;;;;;;;;;;;;;;;5141193;27;19912;-19
2022/09/14 05:58:34;;;;;;;;;;;;;;;;;;5347534;22;19932;-24
2022/09/14 06:01:00;;;;;;;;;;;;;;;;;;5075082;28;19992;-25
2022/09/14 06:03:27;;;;;;;;;;;;;;;;;;5056986;28;20358;-24
2022/09/14 06:05:53;;;;;;;;;;;;;;;;;;5075047;28;19969;-25
2022/09/14 06:08:20;;;;;;;;;;;;;;;;;;5081812;28;19942;-24
2022/09/14 06:10:46;;;;;;;;;;;;;;;;;;5094786;28;20008;-24
2022/09/14 06:13:12;;;;;;;;;;;;;;;;;;5076608;28;19912;-25
2022/09/14 06:15:38;;;;;;;;;;;;;;;;;;5076480;28;20350;-24
2022/09/14 06:18:04;;;;;;;;;;;;;;;;;;5094103;28;20290;-24
2022/09/14 06:20:30;;;;;;;;;;;;;;;;;;5094229;28;19934;-24
2022/09/14 06:22:57;;;;;;;;;;;;;;;;;;5094063;28;19930;-24
2022/09/14 06:25:23;;;;;;;;;;;;;;;;;;5094391;28;19911;-26
2022/09/14 06:27:49;;;;;;;;;;;;;;;;;;5094601;28;19969;-23
2022/09/14 06:30:15;;;;;;;;;;;;;;;;;;5094579;28;20284;-27
2022/09/14 06:32:41;;;;;;;;;;;;;;;;;;5077001;28;19922;-24
2022/09/14 06:35:08;;;;;;;;;;;;;;;;;;5094001;28;20063;-25
2022/09/14 06:37:34;;;;;;;;;;;;;;;;;;5093977;28;19965;-24
2022/09/14 06:40:00;;;;;;;;;;;;;;;;;;5094296;28;19966;-24
2022/09/14 06:42:26;;;;;;;;;;;;;;;;;;5094112;28;20319;-25
2022/09/14 06:44:52;;;;;;;;;;;;;;;;;;5076286;28;19927;-24
2022/09/14 06:47:18;;;;;;;;;;;;;;;;;;5093995;28;19919;-24
2022/09/14 06:49:44;;;;;;;;;;;;;;;;;;5094144;28;19999;-24
2022/09/14 06:52:10;;;;;;;;;;;;;;;;;;5094649;28;20259;-24
2022/09/14 06:54:37;;;;;;;;;;;;;;;;;;5094218;28;19965;-25
2022/09/14 06:57:03;;;;;;;;;;;;;;;;;;5094313;28;19912;-25
2022/09/14 06:59:29;;;;;;;;;;;;;;;;;;5076239;28;19982;-24
2022/09/14 07:01:55;;;;;;;;;;;;;;;;;;5074234;28;20003;-25
2022/09/14 07:04:21;;;;;;;;;;;;;;;;;;5074250;28;19970;-24
2022/09/14 07:06:47;;;;;;;;;;;;;;;;;;5074211;28;19927;-24
2022/09/14 07:09:13;;;;;;;;;;;;;;;;;;5073381;28;19924;-25
2022/09/14 07:11:40;;;;;;;;;;;;;;;;;;5074236;28;20021;-25
2022/09/14 07:14:06;;;;;;;;;;;;;;;;;;5073831;28;19908;-25
2022/09/14 07:16:32;;;;;;;;;;;;;;;;;;5074329;28;20354;-25
2022/09/14 07:18:58;;;;;;;;;;;;;;;;;;5073961;28;19912;-25
2022/09/14 07:21:24;;;;;;;;;;;;;;;;;;5074018;28;19909;-25
2022/09/14 07:23:50;;;;;;;;;;;;;;;;;;5073859;28;19927;-25
2022/09/14 07:26:16;;;;;;;;;;;;;;;;;;5073775;28;20339;-25
2022/09/14 07:28:43;;;;;;;;;;;;;;;;;;5073609;28;19912;-25
2022/09/14 07:31:09;;;;;;;;;;;;;;;;;;5073794;28;19951;-25
2022/09/14 07:33:35;;;;;;;;;;;;;;;;;;5072451;28;20382;-25
2022/09/14 07:36:01;;;;;;;;;;;;;;;;;;5073691;28;20290;-25
2022/09/14 07:38:27;;;;;;;;;;;;;;;;;;5072861;28;20074;-25
2022/09/14 07:40:53;;;;;;;;;;;;;;;;;;5074248;28;20254;-25
2022/09/14 07:43:19;;;;;;;;;;;;;;;;;;5073472;28;20058;-24
2022/09/14 07:45:45;;;;;;;;;;;;;;;;;;5073215;28;19915;-24
2022/09/14 07:48:11;;;;;;;;;;;;;;;;;;5072187;28;19916;-24
2022/09/14 07:50:37;;;;;;;;;;;;;;;;;;5073446;28;20370;-24
2022/09/14 07:53:03;;;;;;;;;;;;;;;;;;5072589;28;19913;-24
2022/09/14 07:55:29;;;;;;;;;;;;;;;;;;5074276;28;19947;-24
2022/09/14 07:57:56;;;;;;;;;;;;;;;;;;5073050;28;19916;-25
2022/09/14 08:00:22;;;;;;;;;;;;;;;;;;5075038;28;19909;-23
2022/09/14 08:02:48;;;;;;;;;;;;;;;;;;5097938;28;19916;-24
2022/09/14 08:05:14;;;;;;;;;;;;;;;;;;5097951;28;20361;-24
2022/09/14 08:07:40;;;;;;;;;;;;;;;;;;5097542;28;19916;-24
2022/09/14 08:10:06;;;;;;;;;;;;;;;;;;5097575;28;19923;-24
2022/09/14 08:12:33;;;;;;;;;;;;;;;;;;5097121;28;19909;-24
2022/09/14 08:14:59;;;;;;;;;;;;;;;;;;5097137;28;19995;-24
2022/09/14 08:17:25;;;;;;;;;;;;;;;;;;5097288;28;19919;-24
2022/09/14 08:19:51;;;;;;;;;;;;;;;;;;5097083;28;20002;-24
2022/09/14 08:22:18;;;;;;;;;;;;;;;;;;5079400;28;20230;-24
2022/09/14 08:24:44;;;;;;;;;;;;;;;;;;5079272;28;19927;-24
2022/09/14 08:27:11;;;;;;;;;;;;;;;;;;5097160;28;19912;-24
2022/09/14 08:29:38;;;;;;;;;;;;;;;;;;5097097;28;19932;-24
2022/09/14 08:32:04;;;;;;;;;;;;;;;;;;5096581;28;19913;-24
2022/09/14 08:34:31;;;;;;;;;;;;;;;;;;5096891;28;19999;-24
2022/09/14 08:37:01;;;;;;;;;;;;;;;;;;5097862;28;20325;-24
2022/09/14 08:45:10;;;;;;;;;;;;;;;;;;5099033;28;20296;-24
2022/09/14 08:47:44;;;;;;;;;;;;;;;;;;5081571;28;19912;-24
2022/09/14 08:58:50;;;;;;;;;;;;;;;;;;4956348;28;19927;-23
2022/09/14 09:04:07;;;;;;;;;;;;;;;;;;5119196;22;20016;-25
2022/09/14 09:06:37;;;;;;;;;;;;;;;;;;5060611;28;19999;-25
2022/09/14 09:29:19;;;;;;;;;;;;;;;;;;5059277;28;19912;-23
2022/09/14 09:31:59;;;;;;;;;;;;;;;;;;5041350;28;19917;-23
2022/09/14 09:34:46;;;;;;;;;;;;;;;;;;5058720;28;19908;-23
2022/09/14 09:37:15;;;;;;;;;;;;;;;;;;5057882;28;20011;-24
2022/09/14 09:39:53;;;;;;;;;;;;;;;;;;5040649;28;19952;-23
2022/09/14 09:42:38;;;;;;;;;;;;;;;;;;5041518;28;19905;-24
2022/09/14 09:45:06;;;;;;;;;;;;;;;;;;5040907;28;19917;-24
2022/09/14 09:47:35;;;;;;;;;;;;;;;;;;5040726;28;19912;-24
2022/09/14 09:50:02;;;;;;;;;;;;;;;;;;5059667;28;19913;-23
2022/09/14 09:52:33;;;;;;;;;;;;;;;;;;5040665;28;19919;-24
2022/09/14 09:55:13;;;;;;;;;;;;;;;;;;5058211;28;19912;-24
2022/09/14 09:57:41;;;;;;;;;;;;;;;;;;5040253;28;20019;-24
2022/09/14 10:00:13;;;;;;;;;;;;;;;;;;5057656;28;19948;-24
2022/09/14 10:02:42;;;;;;;;;;;;;;;;;;5039737;28;20307;-24
2022/09/14 10:05:18;;;;;;;;;;;;;;;;;;5057743;28;19989;-24
2022/09/14 10:07:52;;;;;;;;;;;;;;;;;;5058674;28;19955;-24
2022/09/14 10:10:41;;;;;;;;;;;;;;;;;;5057529;28;19913;-24
2022/09/14 10:16:01;;;;;;;;;;;;;;;;;;5058627;28;19963;-24
2022/09/14 10:18:41;;;;;;;;;;;;;;;;;;5039517;28;19919;-25
2022/09/14 10:21:10;;;;;;;;;;;;;;;;;;5057317;28;19966;-25
2022/09/14 10:23:40;;;;;;;;;;;;;;;;;;5056426;28;20356;-24
2022/09/14 10:29:06;;;;;;;;;;;;;;;;;;5057941;28;19924;-25
2022/09/14 10:31:46;;;;;;;;;;;;;;;;;;5057438;28;19924;-25
2022/09/14 10:34:16;;;;;;;;;;;;;;;;;;5057107;28;19980;-25
2022/09/14 10:36:49;;;;;;;;;;;;;;;;;;5040290;28;19982;-24
2022/09/14 10:39:18;;;;;;;;;;;;;;;;;;5039493;28;19962;-24
2022/09/14 10:41:53;;;;;;;;;;;;;;;;;;5056713;28;20284;-24
2022/09/14 10:44:37;;;;;;;;;;;;;;;;;;5039372;28;19986;-24
2022/09/14 10:47:08;;;;;;;;;;;;;;;;;;5056093;28;19919;-24
2022/09/14 10:49:51;;;;;;;;;;;;;;;;;;5056681;28;19923;-24
2022/09/14 10:52:19;;;;;;;;;;;;;;;;;;5036231;28;19971;-24
2022/09/14 10:54:48;;;;;;;;;;;;;;;;;;5057387;28;19913;-24
2022/09/14 10:57:19;;;;;;;;;;;;;;;;;;5057760;28;20301;-24
2022/09/14 10:59:51;;;;;;;;;;;;;;;;;;5039452;28;19920;-24
2022/09/14 11:02:19;;;;;;;;;;;;;;;;;;5057310;28;20251;-24
2022/09/14 11:04:47;;;;;;;;;;;;;;;;;;5039546;28;19942;-24
2022/09/14 11:07:21;;;;;;;;;;;;;;;;;;5039689;28;19924;-28
2022/09/14 11:09:50;;;;;;;;;;;;;;;;;;5057748;28;19912;-23
2022/09/14 11:12:23;;;;;;;;;;;;;;;;;;5039060;28;19978;-24
2022/09/14 11:15:04;;;;;;;;;;;;;;;;;;5057127;28;19921;-24
2022/09/14 11:17:35;;;;;;;;;;;;;;;;;;5058136;28;20048;-24
2022/09/14 11:20:04;;;;;;;;;;;;;;;;;;5055265;28;19953;-24
2022/09/14 11:22:34;;;;;;;;;;;;;;;;;;5056897;28;19992;-24
2022/09/14 11:25:02;;;;;;;;;;;;;;;;;;5056021;28;19925;-23
2022/09/14 11:27:36;;;;;;;;;;;;;;;;;;5056704;28;19917;-24
2022/09/14 11:30:10;;;;;;;;;;;;;;;;;;5038887;28;19920;-24
2022/09/14 11:32:41;;;;;;;;;;;;;;;;;;5055571;28;19935;-23
2022/09/14 11:35:17;;;;;;;;;;;;;;;;;;5058046;28;20343;-24
2022/09/14 11:37:57;;;;;;;;;;;;;;;;;;5042548;28;19981;-23
2022/09/14 11:40:32;;;;;;;;;;;;;;;;;;5060698;28;19909;-24
2022/09/14 11:43:06;;;;;;;;;;;;;;;;;;5061190;28;20128;-24
2022/09/14 11:45:36;;;;;;;;;;;;;;;;;;5060631;28;19920;-24
2022/09/14 11:48:07;;;;;;;;;;;;;;;;;;5042723;28;19912;-24
2022/09/14 11:53:29;;;;;;;;;;;;;;;;;;5060799;28;19924;-24
2022/09/14 11:55:58;;;;;;;;;;;;;;;;;;5060598;28;19994;-25
2022/09/14 11:58:36;;;;;;;;;;;;;;;;;;5043480;28;20262;-24
2022/09/14 12:01:05;;;;;;;;;;;;;;;;;;5042620;28;19920;-24
2022/09/14 12:03:36;;;;;;;;;;;;;;;;;;5042420;28;20251;-23
2022/09/14 12:06:07;;;;;;;;;;;;;;;;;;5059731;28;20300;-23
2022/09/14 12:08:38;;;;;;;;;;;;;;;;;;5042729;28;19909;-23
2022/09/14 12:11:13;;;;;;;;;;;;;;;;;;5060101;28;19953;-23
2022/09/14 12:13:42;;;;;;;;;;;;;;;;;;5042569;28;20006;-23
2022/09/14 12:16:12;;;;;;;;;;;;;;;;;;5060985;28;19940;-24
2022/09/14 12:18:43;;;;;;;;;;;;;;;;;;5060871;28;20000;-24
2022/09/14 12:21:25;;;;;;;;;;;;;;;;;;5060112;28;20259;-24
2022/09/14 12:23:56;;;;;;;;;;;;;;;;;;5058748;28;19913;-24
2022/09/14 12:26:27;;;;;;;;;;;;;;;;;;5074598;28;19984;-23
2022/09/14 12:31:49;;;;;;;;;;;;;;;;;;5080093;28;19935;-25
2022/09/14 12:34:17;;;;;;;;;;;;;;;;;;5079649;28;19952;-25
2022/09/14 12:36:59;;;;;;;;;;;;;;;;;;5079628;28;20342;-25
2022/09/14 12:39:39;;;;;;;;;;;;;;;;;;5079162;28;19939;-25
2022/09/14 12:42:15;;;;;;;;;;;;;;;;;;5079408;28;20257;-25
2022/09/14 12:44:51;;;;;;;;;;;;;;;;;;5078888;28;19963;-24
2022/09/14 12:47:24;;;;;;;;;;;;;;;;;;5061078;28;19912;-24
2022/09/14 12:49:53;;;;;;;;;;;;;;;;;;5078672;28;19940;-24
2022/09/14 12:55:34;;;;;;;;;;;;;;;;;;5080587;28;19923;-24
2022/09/14 12:58:25;;;;;;;;;;;;;;;;;;5079213;28;19934;-24
2022/09/14 13:03:38;;;;;;;;;;;;;;;;;;5080062;28;19923;-25
2022/09/14 13:06:16;;;;;;;;;;;;;;;;;;5061728;28;19916;-25
2022/09/14 13:08:50;;;;;;;;;;;;;;;;;;5079907;28;19920;-24
2022/09/14 13:11:35;;;;;;;;;;;;;;;;;;5062892;28;19913;-24
2022/09/14 13:14:10;;;;;;;;;;;;;;;;;;5079456;28;19920;-25
2022/09/14 13:16:38;;;;;;;;;;;;;;;;;;5079468;28;19913;-25
2022/09/14 13:19:11;;;;;;;;;;;;;;;;;;5079033;28;20001;-25
2022/09/14 13:21:38;;;;;;;;;;;;;;;;;;5061511;28;19913;-25
2022/09/14 13:24:06;;;;;;;;;;;;;;;;;;5078680;28;19919;-24
2022/09/14 13:26:45;;;;;;;;;;;;;;;;;;5078170;28;19956;-24
2022/09/14 13:32:07;;;;;;;;;;;;;;;;;;5078922;28;19943;-26
2022/09/14 13:34:35;;;;;;;;;;;;;;;;;;5061321;28;19912;-25
2022/09/14 13:37:03;;;;;;;;;;;;;;;;;;5078587;28;20264;-26
2022/09/14 13:39:32;;;;;;;;;;;;;;;;;;5080131;28;19913;-25
2022/09/14 13:42:04;;;;;;;;;;;;;;;;;;5061803;28;19920;-25
2022/09/14 13:44:32;;;;;;;;;;;;;;;;;;5077355;28;19917;-25
2022/09/14 13:47:10;;;;;;;;;;;;;;;;;;5077693;28;19923;-25
2022/09/14 13:49:45;;;;;;;;;;;;;;;;;;5079414;28;19919;-25
2022/09/14 13:52:15;;;;;;;;;;;;;;;;;;5078683;28;20343;-24
2022/09/14 13:54:44;;;;;;;;;;;;;;;;;;5077697;28;19976;-24
2022/09/14 13:57:21;;;;;;;;;;;;;;;;;;5079373;28;19920;-24
2022/09/14 13:59:50;;;;;;;;;;;;;;;;;;5060936;28;19912;-24
2022/09/14 14:05:14;;;;;;;;;;;;;;;;;;5078504;28;19926;-24
2022/09/14 14:07:41;;;;;;;;;;;;;;;;;;5078836;28;19912;-24
2022/09/14 14:10:11;;;;;;;;;;;;;;;;;;5077237;28;19916;-24
2022/09/14 14:12:43;;;;;;;;;;;;;;;;;;5059155;28;19913;-25
2022/09/14 14:15:13;;;;;;;;;;;;;;;;;;5060331;28;19913;-26
2022/09/14 14:17:40;;;;;;;;;;;;;;;;;;5077629;28;19938;-25
2022/09/14 14:22:59;;;;;;;;;;;;;;;;;;5077295;28;19923;-23
2022/09/14 14:25:28;;;;;;;;;;;;;;;;;;5059208;28;20260;-23
2022/09/14 14:27:55;;;;;;;;;;;;;;;;;;5076930;28;19966;-23
2022/09/14 14:30:27;;;;;;;;;;;;;;;;;;5078188;28;20280;-23
2022/09/14 14:32:53;;;;;;;;;;;;;;;;;;5076968;28;19912;-22
2022/09/14 14:35:34;;;;;;;;;;;;;;;;;;5079247;28;19940;-23
2022/09/14 14:38:00;;;;;;;;;;;;;;;;;;5059871;28;19913;-25
2022/09/14 14:40:33;;;;;;;;;;;;;;;;;;5077503;28;19908;-25
2022/09/14 14:43:06;;;;;;;;;;;;;;;;;;5060502;28;20259;-25
2022/09/14 14:45:36;;;;;;;;;;;;;;;;;;5078711;28;19936;-25
2022/09/14 14:48:04;;;;;;;;;;;;;;;;;;5059578;28;19913;-25
2022/09/14 14:50:32;;;;;;;;;;;;;;;;;;5076519;28;19957;-25
2022/09/14 14:53:00;;;;;;;;;;;;;;;;;;5076731;28;19913;-25
2022/09/14 14:55:36;;;;;;;;;;;;;;;;;;5077257;28;19920;-25
2022/09/14 14:58:03;;;;;;;;;;;;;;;;;;5077679;28;20044;-25
2022/09/14 15:00:32;;;;;;;;;;;;;;;;;;5078479;28;19919;-25
2022/09/14 15:03:18;;;;;;;;;;;;;;;;;;5079123;28;19912;-25
2022/09/14 15:05:46;;;;;;;;;;;;;;;;;;5079479;28;19999;-24
2022/09/14 15:11:06;;;;;;;;;;;;;;;;;;5082721;28;19923;-24
2022/09/14 15:13:35;;;;;;;;;;;;;;;;;;5082181;28;19924;-24
2022/09/14 15:16:14;;;;;;;;;;;;;;;;;;5062467;28;20196;-24
2022/09/14 15:18:44;;;;;;;;;;;;;;;;;;5081292;28;19909;-24
2022/09/14 15:21:15;;;;;;;;;;;;;;;;;;5082457;28;19912;-24
2022/09/14 15:23:43;;;;;;;;;;;;;;;;;;5080307;28;19920;-24
2022/09/14 15:26:11;;;;;;;;;;;;;;;;;;5079809;28;19952;-24
2022/09/14 15:28:39;;;;;;;;;;;;;;;;;;5062024;28;19932;-25
2022/09/14 15:31:06;;;;;;;;;;;;;;;;;;5062188;28;19912;-25
2022/09/14 15:33:35;;;;;;;;;;;;;;;;;;5079877;28;19932;-26
2022/09/14 15:36:03;;;;;;;;;;;;;;;;;;5079382;28;19912;-24
2022/09/14 15:38:39;;;;;;;;;;;;;;;;;;5081317;28;19912;-24
2022/09/14 15:41:11;;;;;;;;;;;;;;;;;;5080635;28;19919;-24
2022/09/14 15:43:39;;;;;;;;;;;;;;;;;;5081466;28;19919;-24
2022/09/14 15:46:08;;;;;;;;;;;;;;;;;;5080884;28;20246;-24
2022/09/14 15:48:35;;;;;;;;;;;;;;;;;;5081767;28;19908;-24
2022/09/14 15:51:04;;;;;;;;;;;;;;;;;;5063168;28;19999;-24
2022/09/14 15:53:33;;;;;;;;;;;;;;;;;;5062233;28;20385;-24
2022/09/14 15:56:00;;;;;;;;;;;;;;;;;;5080759;28;20358;-24
2022/09/14 15:58:30;;;;;;;;;;;;;;;;;;5079997;28;19916;-24
2022/09/14 16:00:58;;;;;;;;;;;;;;;;;;5080602;28;19912;-24
2022/09/14 16:03:26;;;;;;;;;;;;;;;;;;5079345;28;19917;-24
2022/09/14 16:05:53;;;;;;;;;;;;;;;;;;5079494;28;19999;-23
2022/09/14 16:08:25;;;;;;;;;;;;;;;;;;5079307;28;19970;-25
2022/09/14 16:10:51;;;;;;;;;;;;;;;;;;5079504;28;20315;-24
2022/09/14 16:13:19;;;;;;;;;;;;;;;;;;5061469;28;19924;-25
2022/09/14 16:15:47;;;;;;;;;;;;;;;;;;5080325;28;19931;-23
2022/09/14 16:18:16;;;;;;;;;;;;;;;;;;5062591;28;19920;-24
2022/09/14 16:20:43;;;;;;;;;;;;;;;;;;5079153;28;19995;-25
2022/09/14 16:23:10;;;;;;;;;;;;;;;;;;5061240;28;19916;-24
2022/09/14 16:25:39;;;;;;;;;;;;;;;;;;5079746;28;20326;-25
2022/09/14 16:28:06;;;;;;;;;;;;;;;;;;5080264;28;19917;-24
2022/09/14 16:30:32;;;;;;;;;;;;;;;;;;5061701;28;19912;-24
2022/09/14 16:33:00;;;;;;;;;;;;;;;;;;5079878;28;20254;-24
2022/09/14 16:35:28;;;;;;;;;;;;;;;;;;5080246;28;19912;-24
2022/09/14 16:37:56;;;;;;;;;;;;;;;;;;5079747;28;20358;-24
2022/09/14 16:40:24;;;;;;;;;;;;;;;;;;5080265;28;20359;-25
2022/09/14 16:42:52;;;;;;;;;;;;;;;;;;5062062;28;19923;-25
2022/09/14 16:45:21;;;;;;;;;;;;;;;;;;5079349;28;19916;-24
2022/09/14 16:47:48;;;;;;;;;;;;;;;;;;5079558;28;19912;-24
2022/09/14 16:50:15;;;;;;;;;;;;;;;;;;5079581;28;19915;-24
2022/09/14 16:52:44;;;;;;;;;;;;;;;;;;5079377;28;20251;-23
2022/09/14 16:55:11;;;;;;;;;;;;;;;;;;5079256;28;19928;-24
2022/09/14 16:57:39;;;;;;;;;;;;;;;;;;5079055;28;20317;-24
2022/09/14 17:00:05;;;;;;;;;;;;;;;;;;5078711;28;19908;-24
2022/09/14 17:02:32;;;;;;;;;;;;;;;;;;5061037;28;19923;-24
2022/09/14 17:05:00;;;;;;;;;;;;;;;;;;5079058;28;19971;-24
2022/09/14 17:07:27;;;;;;;;;;;;;;;;;;5079685;28;19951;-24
2022/09/14 17:09:55;;;;;;;;;;;;;;;;;;5059822;28;19951;-24
2022/09/14 17:12:23;;;;;;;;;;;;;;;;;;5060518;28;19919;-24
2022/09/14 17:14:50;;;;;;;;;;;;;;;;;;5078150;28;20003;-24
2022/09/14 17:17:17;;;;;;;;;;;;;;;;;;5078674;28;20336;-24
2022/09/14 17:19:45;;;;;;;;;;;;;;;;;;5078234;28;19920;-24
2022/09/14 17:22:13;;;;;;;;;;;;;;;;;;5079133;28;19920;-24
2022/09/14 17:24:40;;;;;;;;;;;;;;;;;;5078268;28;19956;-24
2022/09/14 17:27:08;;;;;;;;;;;;;;;;;;5060647;28;19920;-24
2022/09/14 17:35:03;;;;;;;;;;;;;;;;;;5076071;28;19923;-24
2022/09/14 17:37:29;;;;;;;;;;;;;;;;;;5075756;28;19912;-24
2022/09/14 17:39:56;;;;;;;;;;;;;;;;;;5049864;28;19982;-24
2022/09/14 17:42:22;;;;;;;;;;;;;;;;;;5075473;28;19920;-24
2022/09/14 17:44:48;;;;;;;;;;;;;;;;;;5075533;28;19916;-24
2022/09/14 17:47:14;;;;;;;;;;;;;;;;;;5075051;28;19909;-24
2022/09/14 17:49:40;;;;;;;;;;;;;;;;;;5075193;28;19913;-24
2022/09/14 17:52:06;;;;;;;;;;;;;;;;;;5075168;28;20240;-24
2022/09/14 17:54:32;;;;;;;;;;;;;;;;;;5075188;28;19952;-24
2022/09/14 17:56:58;;;;;;;;;;;;;;;;;;5075014;28;19912;-24
2022/09/14 17:59:24;;;;;;;;;;;;;;;;;;5074933;28;19991;-24
2022/09/14 18:01:50;;;;;;;;;;;;;;;;;;5074818;28;19974;-24
2022/09/14 18:04:16;;;;;;;;;;;;;;;;;;5074691;28;20335;-24
2022/09/14 18:06:42;;;;;;;;;;;;;;;;;;5057001;28;19920;-24
2022/09/14 18:09:08;;;;;;;;;;;;;;;;;;5074940;28;19923;-24
2022/09/14 18:11:35;;;;;;;;;;;;;;;;;;5056878;28;19913;-24
2022/09/14 18:14:01;;;;;;;;;;;;;;;;;;5056838;28;20410;-24
2022/09/14 18:16:27;;;;;;;;;;;;;;;;;;5074765;28;20247;-24
2022/09/14 18:18:53;;;;;;;;;;;;;;;;;;5074650;28;20207;-25
2022/09/14 18:21:19;;;;;;;;;;;;;;;;;;5074612;28;19913;-24
2022/09/14 18:23:45;;;;;;;;;;;;;;;;;;5074394;28;19951;-24
2022/09/14 18:26:11;;;;;;;;;;;;;;;;;;5074544;28;19928;-24
2022/09/14 18:28:37;;;;;;;;;;;;;;;;;;5057174;28;19909;-24
2022/09/14 18:31:03;;;;;;;;;;;;;;;;;;5074579;28;19922;-25
2022/09/14 18:33:29;;;;;;;;;;;;;;;;;;5057123;28;20203;-24
2022/09/14 18:35:55;;;;;;;;;;;;;;;;;;5074436;28;19995;-24
2022/09/14 18:38:21;;;;;;;;;;;;;;;;;;5056654;28;20003;-24
2022/09/14 18:40:47;;;;;;;;;;;;;;;;;;5074361;28;19912;-24
2022/09/14 18:43:15;;;;;;;;;;;;;;;;;;5074274;28;19908;-25
2022/09/14 18:45:41;;;;;;;;;;;;;;;;;;5074769;28;19913;-25
2022/09/14 18:48:07;;;;;;;;;;;;;;;;;;5056602;28;20010;-24
2022/09/14 18:50:33;;;;;;;;;;;;;;;;;;5056327;28;19948;-23
2022/09/14 18:52:59;;;;;;;;;;;;;;;;;;5074294;28;20293;-24
2022/09/14 18:55:25;;;;;;;;;;;;;;;;;;5074065;28;19926;-24
2022/09/14 18:57:51;;;;;;;;;;;;;;;;;;5056334;28;19944;-24
2022/09/14 19:00:17;;;;;;;;;;;;;;;;;;5074213;28;19919;-24
2022/09/14 19:02:44;;;;;;;;;;;;;;;;;;5073850;28;19912;-24
2022/09/14 19:05:10;;;;;;;;;;;;;;;;;;5073958;28;19978;-24
2022/09/14 19:07:38;;;;;;;;;;;;;;;;;;5073437;28;20177;-24
2022/09/14 19:10:06;;;;;;;;;;;;;;;;;;5074234;28;19912;-24
2022/09/14 19:12:32;;;;;;;;;;;;;;;;;;5073669;28;19905;-24
2022/09/14 19:14:58;;;;;;;;;;;;;;;;;;5056104;28;19923;-23
2022/09/14 19:17:24;;;;;;;;;;;;;;;;;;5073654;28;20032;-24
2022/09/14 19:19:50;;;;;;;;;;;;;;;;;;5073734;28;19920;-24
2022/09/14 19:22:16;;;;;;;;;;;;;;;;;;5073769;28;19908;-22
2022/09/14 19:24:42;;;;;;;;;;;;;;;;;;5073365;28;19916;-23
2022/09/14 19:27:08;;;;;;;;;;;;;;;;;;5073365;28;19912;-24
2022/09/14 19:29:34;;;;;;;;;;;;;;;;;;5073478;28;19998;-24
2022/09/14 19:32:00;;;;;;;;;;;;;;;;;;5073743;28;19931;-24
2022/09/14 19:34:26;;;;;;;;;;;;;;;;;;5073532;28;19916;-24
2022/09/14 19:36:52;;;;;;;;;;;;;;;;;;5073414;28;19924;-23
2022/09/14 19:39:18;;;;;;;;;;;;;;;;;;5073829;28;20007;-24
2022/09/14 19:41:44;;;;;;;;;;;;;;;;;;5073701;28;19955;-24
2022/09/14 19:44:10;;;;;;;;;;;;;;;;;;5073661;28;20435;-24
2022/09/14 19:46:38;;;;;;;;;;;;;;;;;;5073565;28;20305;-24
2022/09/14 19:49:04;;;;;;;;;;;;;;;;;;5073696;28;19917;-24
2022/09/14 19:51:30;;;;;;;;;;;;;;;;;;5073597;28;19919;-24
2022/09/14 19:53:56;;;;;;;;;;;;;;;;;;5073705;28;20236;-24
2022/09/14 19:56:24;;;;;;;;;;;;;;;;;;5074851;28;19912;-24
2022/09/14 19:58:50;;;;;;;;;;;;;;;;;;5076729;28;19966;-24
2022/09/14 20:01:16;;;;;;;;;;;;;;;;;;5076467;28;19916;-24
2022/09/14 20:03:42;;;;;;;;;;;;;;;;;;5076350;28;19916;-24
2022/09/14 20:06:08;;;;;;;;;;;;;;;;;;5076273;28;20457;-24
2022/09/14 20:08:34;;;;;;;;;;;;;;;;;;5076284;28;19920;-24
2022/09/14 20:11:00;;;;;;;;;;;;;;;;;;5076265;28;20003;-24
2022/09/14 20:13:26;;;;;;;;;;;;;;;;;;5076285;28;19970;-24
2022/09/14 20:15:52;;;;;;;;;;;;;;;;;;5076009;28;20310;-24
2022/09/14 20:18:18;;;;;;;;;;;;;;;;;;5076201;28;19916;-24
2022/09/14 20:20:44;;;;;;;;;;;;;;;;;;5059062;28;20300;-24
2022/09/14 20:23:10;;;;;;;;;;;;;;;;;;5076528;28;19963;-23
2022/09/14 20:25:36;;;;;;;;;;;;;;;;;;5076724;28;19964;-24
2022/09/14 20:28:02;;;;;;;;;;;;;;;;;;5076856;28;19912;-24
2022/09/14 20:30:28;;;;;;;;;;;;;;;;;;5076723;28;19913;-24
2022/09/14 20:32:54;;;;;;;;;;;;;;;;;;5076607;28;19956;-24
2022/09/14 20:35:20;;;;;;;;;;;;;;;;;;5076320;28;20398;-24
2022/09/14 20:37:46;;;;;;;;;;;;;;;;;;5076490;28;19917;-24
2022/09/14 20:40:11;;;;;;;;;;;;;;;;;;5076468;28;20323;-24
2022/09/14 20:42:38;;;;;;;;;;;;;;;;;;5076320;28;19912;-24
2022/09/14 20:45:03;;;;;;;;;;;;;;;;;;5076391;28;19928;-24
2022/09/14 20:47:29;;;;;;;;;;;;;;;;;;5076549;28;19916;-24
2022/09/14 20:49:56;;;;;;;;;;;;;;;;;;5076269;28;19916;-24
2022/09/14 20:52:21;;;;;;;;;;;;;;;;;;5076531;28;19912;-30